Piotr Klich

Olheiro-Chefe - Jagiellonia
17 Jul 2027
Sábado
Processo

Personalidade

Adaptabilidade (14) Ambição (14) Controvérsia (1) Lealdade (16) Pressão (6) Profissionalismo (4) Espírito Esportivo (14) Temperamento (17)

Perfil

Estilo de Treinamento Democrático
Licença Continental B
Determinação 7
Gestão de Pessoas 5
Motivação 13
Disciplina 5
Satisfação no Trabalho
70%
Fadiga
0%
Função Olheiro-Chefe
Salário 77.3K p/s
Contrato 14.03.2028

Desempenho

Comportamento Bom
Eficácia do Treinamento
28%
Desenvolvimento do Jogador
35%
Prevenção de Lesões
65%
Implementação Tática
65%

Eventos Recentes

Participou de uma reunião de recrutamento agora
Recomendou um alvo de transferência agora
Participou de uma reunião de recrutamento agora
Recomendou um alvo de transferência agora
Recomendou um alvo de transferência agora
Recomendou um alvo de transferência agora
Recomendou um alvo de transferência agora
Recomendou um alvo de transferência 7d atrás

Monitorando agora

182
Jogador Clube Status Habilidade Confiança Observado Última observação Último voto
Riquelme Thompson-Jones Shrewsbury Town Ativo 106 / 108 40% 2 01.07.2027 -
Mohammed Wakaso Hasaacas Ativo 92 / 112 40% 3 01.07.2027 -
Rhys Chadwick Gillingham Ativo 99 / 113 40% 1 01.07.2027 -
Maeson King Blackpool Ativo 112 / 109 40% 4 30.06.2027 -
Godwin Oham Warri Wolves Ativo 94 / 96 40% 2 30.06.2027 -
Matvey Kislyak Lokomotiv Moscow Ativo 141 / 141 40% 1 30.06.2027 -
Mauricio Amaro Atlanta United FC Ativo 125 / 130 40% 2 29.06.2027 -
Juan David Arizala Udinese Ativo 122 / 133 40% 2 29.06.2027 -
Joe Johnson Luton Town Ativo 100 / 100 40% 1 29.06.2027 -
Bojan Radulović Huddersfield Town Ativo 112 / 126 40% 4 14.06.2027 -
Lucas Boyé Alavés Ativo 137 / 126 40% 1 14.06.2027 -
Erik Prekop Gornik Zabrze Ativo 125 / 122 40% 1 14.06.2027 -
Jofre Torrents Ajax Ativo 125 / 122 40% 4 01.06.2027 -
Caio Vidal FC Copenhagen Negociando 128 / 129 63% 1 01.06.2027 Aprovar
Konstantin Tyukavin Arsenal Ativo 132 / 133 66% 1 01.06.2027 Aprovar
Facundo Torres AIK Ativo 134 / 134 67% 1 01.06.2027 Aprovar
Gonzalo Plata Rosenborg Negociando 133 / 134 66% 1 01.06.2027 -
Camilo Durán Bloemfontein Celtic Ativo 116 / 131 40% 16 30.05.2027 -
Tommy Conway Middlesbrough Ativo 133 / 124 40% 4 30.05.2027 -
Patrick Agyemang Derby County Ativo 124 / 117 40% 7 30.05.2027 -
Riley Owen Wycombe Wanderers Ativo 102 / 101 40% 3 29.05.2027 -
Camillo Tavernelli Arezzo Ativo 119 / 104 40% 2 29.05.2027 -
Sam Greenwood Bristol City Ativo 121 / 118 40% 2 29.05.2027 -
Christos Mouzakitis Hull City Ativo 130 / 138 40% 6 28.05.2027 -
Leandro Martins Benfica Ativo 93 / 100 40% 3 28.05.2027 -
Dale Taylor Blackpool Ativo 109 / 119 40% 7 26.05.2027 -
Bradley Fink Wycombe Wanderers Ativo 104 / 119 40% 3 26.05.2027 -
Richard Koné Queens Park Rangers Ativo 122 / 117 40% 7 25.05.2027 -
Tyrese Campbell Sheffield United Ativo 129 / 132 40% 8 23.05.2027 -
Kyle Wootton Stockport County Ativo 125 / 127 40% 2 23.05.2027 -
Joe Gelhardt Hull City Ativo 129 / 121 40% 3 22.05.2027 -
Mathias Jørgensen Blackburn Rovers Ativo 126 / 119 40% 6 22.05.2027 -
Fabrizio Cavegn Bristol Rovers Ativo 114 / 100 40% 1 22.05.2027 -
Yousef Salech Cardiff City Ativo 124 / 128 40% 10 21.05.2027 -
Jay Stansfield Birmingham Ativo 128 / 137 40% 4 21.05.2027 -
Ilyas Ansah Hull City Ativo 135 / 123 40% 6 21.05.2027 -
John Yeboah Venezia Ativo 120 / 110 40% 1 19.05.2027 -
Marezi Portsmouth Ativo 121 / 128 40% 1 18.05.2027 -
Salah Mohsen El Masry Ativo 116 / 98 40% 1 18.05.2027 -
Sam Surridge Leeds United Ativo 130 / 143 40% 1 17.05.2027 -
Gonçalo Oliveira Benfica Ativo 111 / 112 40% 8 16.05.2027 -
Lucas Jetten Cambuur Ativo 107 / 119 40% 4 16.05.2027 -
Mattia Felici Cagliari Ativo 128 / 138 40% 2 16.05.2027 -
Tyreece Campbell Charlton Athletic Ativo 114 / 118 40% 2 16.05.2027 -
Simone Kosijer Triestina Ativo 96 / 91 40% 1 16.05.2027 -
Matías Gómez Valencia Ativo 110 / 115 40% 1 15.05.2027 -
Jovon Makama Norwich City Ativo 123 / 127 40% 4 14.05.2027 -
Lamine Cissé Peterborough United Ativo 124 / 124 40% 5 14.05.2027 -
Christian Saydee Wigan Athletic Ativo 117 / 108 40% 2 14.05.2027 -
Josh Coburn Millwall Ativo 120 / 112 40% 1 14.05.2027 -
Sam Bell Bristol City Ativo 123 / 117 40% 2 11.05.2027 -
Sam Smith Wrexham Ativo 118 / 125 40% 1 11.05.2027 -
Karlan Grant West Bromwich Albion Ativo 125 / 116 40% 1 11.05.2027 -
Giorgi Kvernadze Frosinone Ativo 123 / 134 40% 1 11.05.2027 -
Rumarn Burrell Queens Park Rangers Ativo 123 / 135 40% 7 09.05.2027 -
Cameron Archer Southampton Ativo 131 / 133 40% 2 09.05.2027 -
Aune Heggebø West Bromwich Albion Ativo 125 / 119 40% 3 08.05.2027 -
Fashion Sakala MC Alger Ativo 131 / 138 40% 1 08.05.2027 -
Zian Flemming Ipswich Town Ativo 130 / 135 40% 2 07.05.2027 -
Aaron Connolly Ruch Ativo 129 / 135 40% 13 06.05.2027 -
Harvey Blair Portsmouth Ativo 114 / 121 40% 3 06.05.2027 -
Victor Torp Coventry City Ativo 126 / 121 40% 1 06.05.2027 -
Malik Mothersille Stockport County Ativo 116 / 117 40% 1 04.05.2027 -
Job Ochieng Real Sociedad Ativo 106 / 100 40% 3 02.05.2027 -
Bernat Guiu Virtus Entella Ativo 123 / 124 40% 2 02.05.2027 -
Miguel Figueiredo Benfica Ativo 110 / 122 40% 3 02.05.2027 -
Etiosa Ighodaro Kaizer Chiefs Ativo 118 / 121 40% 6 29.04.2027 -
Thiago Silvero Sevilla Ativo 120 / 134 40% 2 29.04.2027 -
Gladson Sulemana Liberty Professionals Ativo 96 / 80 40% 3 27.04.2027 -
Mattia Puzone Siracusa Ativo 95 / 110 40% 1 27.04.2027 -
Joel McGregor Swindon Town Ativo 98 / 99 40% 2 26.04.2027 -
Jaydee Canvot Liverpool Ativo 132 / 129 40% 1 26.04.2027 Mais informações
Pietro Reggiori Pro Patria Ativo 91 / 91 40% 1 26.04.2027 -
Surprise Manthosi Polokwane City Ativo 98 / 87 40% 2 24.04.2027 -
Lucas Høgsberg Paris Saint-Germain Ativo 134 / 138 40% 1 24.04.2027 -
Dom Ballard Leyton Orient Ativo 119 / 127 40% 2 21.04.2027 -
Jeffrey Adjei Wa All Stars Ativo 92 / 70 40% 2 21.04.2027 -
Pablo Rodríguez Lech Perdido 124 / 127 40% 16 18.04.2027 -
Andrey Ivlev Nizhniy Novgorod Ativo 107 / 107 40% 1 18.04.2027 -
Daniel Kelly Derby County Ativo 109 / 112 40% 4 17.04.2027 -
Jonathan Bland Barnsley Ativo 102 / 109 40% 2 17.04.2027 -
Davide Bartesaghi AC Milan Ativo 128 / 124 40% 1 16.04.2027 -
Dylan Lawlor Cardiff City Ativo 115 / 114 40% 2 15.04.2027 -
Bohdan Viunnyk Lechia Ativo 113 / 123 40% 9 12.04.2027 -
Luther Tau SuperSport United Ativo 118 / 127 40% 8 11.04.2027 -
Lorent Tolaj Plymouth Argyle Ativo 116 / 115 40% 1 09.04.2027 -
Jakub Jakimiuk Angusht Ativo 76 / 73 40% 8 07.04.2027 -
Adam Idah Swansea City Ativo 118 / 113 40% 1 07.04.2027 -
Vladislav Blănuţă Lechia Ativo 109 / 120 40% 8 06.04.2027 -
Gabriel Charpentier Cracovia Ativo 114 / 111 40% 5 05.04.2027 -
Žan Vipotnik Swansea City Ativo 130 / 115 40% 1 05.04.2027 -
Iwan Morgan Grimsby Town Ativo 105 / 122 40% 6 02.04.2027 -
Eduardo Felicíssimo Sporting CP Perdido 102 / 126 40% 3 02.04.2027 -
Hamdi Labidi Olympique Akbou Ativo 116 / 97 40% 1 01.04.2027 -
Abu Kamara Portsmouth Ativo 113 / 110 40% 4 30.03.2027 -
T-Jay Parfitt Cardiff City Ativo 85 / 88 40% 2 30.03.2027 -
Tiago Freitas Benfica Ativo 103 / 102 40% 2 28.03.2027 -
Mohamed-Ali Cho Hull City Ativo 138 / 139 40% 1 28.03.2027 -
Luciano Peluso Giugliano Ativo 92 / 106 40% 1 28.03.2027 -
Bakary Haïdara Hearts of Oak Ativo 114 / 96 40% 4 23.03.2027 -
James Dornelly Peterborough United Ativo 98 / 99 40% 3 20.03.2027 -
Aidomo Emakhu Oxford United Ativo 122 / 119 40% 2 20.03.2027 -
Leonardo Mendicino Bari Ativo 115 / 114 40% 1 20.03.2027 -
Anthony Scully Shrewsbury Town Ativo 101 / 87 40% 1 18.03.2027 -
Mihael Mlinarić Zaglebie Ativo 120 / 118 40% 8 17.03.2027 -
Allahyar Sayyadmanesh Lech Ativo 136 / 125 40% 2 16.03.2027 -
Jerome Karelse Golden Arrows Ativo 100 / 85 40% 5 10.03.2027 -
Fábio Carvalho Brentford Ativo 142 / 148 40% 1 10.03.2027 -
Jalen Blesa Rio Ave Ativo 115 / 120 40% 1 04.03.2027 -
Caleb Yirenkyi Coventry City Ativo 130 / 150 40% 7 03.03.2027 -
Norbert Barczak Korona Ativo 85 / 84 40% 2 02.03.2027 -
Ignacio Perruzzi Celta Ativo 122 / 115 40% 3 02.03.2027 -
Jonathan De Irastorza Levante Ativo 116 / 132 40% 4 01.03.2027 -
Luis Palma Lech Ativo 126 / 129 40% 8 18.02.2027 -
Edwin Asamoah Berekum Chelsea Ativo 80 / 78 40% 1 18.02.2027 -
Rajmund Molnár Pogon Ativo 116 / 111 40% 4 16.02.2027 -
Wojciech Szafranek Angusht Ativo 76 / 84 40% 5 10.02.2027 -
Eivind Helland Bologna Ativo 128 / 122 40% 2 10.02.2027 -
Filip Kubala Banik Ostrava Ativo 123 / 110 40% 1 03.02.2027 -
Simphiwe Selepe Orlando Pirates Ativo 101 / 134 40% 1 02.02.2027 -
Thomas Atiemo Wa All Stars Ativo 92 / 106 40% 2 29.01.2027 -
Ezra Mayers West Ham United Ativo 115 / 133 40% 2 28.01.2027 -
Taras Mykhavko Dynamo Kyiv Ativo 122 / 115 40% 2 27.01.2027 -
Daniel Vernattus Metalist Ativo 84 / 97 40% 1 24.01.2027 -
George Hirst Stoke City Ativo 139 / 129 40% 1 23.01.2027 -
Patrik Hellebrand Korona Ativo 125 / 114 40% 2 18.01.2027 -
Abraham Paintsil Hasaacas Ativo 77 / 107 40% 1 10.01.2027 -
Ammar Ramadan DAC Dunajska Streda Ativo 120 / 127 40% 4 01.01.2027 -
Thulani Billiat Utrecht Ativo 136 / 136 61% 1 01.01.2027 Aprovar
Pedro de la Vega Leganés Ativo 133 / 134 66% 1 01.01.2027 Aprovar
Reda Khadra Qarabag Ativo 139 / 131 40% 1 29.12.2026 -
Giorgi Chakvetadze Watford Ativo 123 / 126 40% 1 29.12.2026 -
Mihailo Ivanović Millwall Ativo 118 / 115 40% 1 27.12.2026 -
Ronald Swansea City Ativo 125 / 129 40% 1 27.12.2026 -
Alex Robertson Cardiff City Ativo 123 / 135 40% 1 27.12.2026 -
Andre Brooks Sheffield United Ativo 129 / 129 40% 1 18.12.2026 -
Mateusz Bogusz Houston Dynamo Ativo 138 / 113 40% 10 14.12.2026 -
David Miculescu FCSB Ativo 118 / 129 40% 1 10.12.2026 Mais informações
Samuele Vignato HNK Rijeka Ativo 111 / 121 40% 3 04.12.2026 -
Kelvin Yeboah Minnesota United FC Ativo 119 / 136 40% 1 01.12.2026 -
Relebohile Mofokeng Orlando Pirates Ativo 114 / 140 40% 3 30.11.2026 -
Jakub Bednarczyk Gornik Leczna Ativo 100 / 114 40% 2 30.11.2026 -
Marquinhos Spartak Moscow Ativo 132 / 121 40% 2 30.11.2026 -
Claudy M'Buyi Rapid Wien Ativo 119 / 124 40% 2 30.11.2026 -
Christian Krasnodar Ativo 134 / 132 40% 1 27.11.2026 -
Tshepang Moremi Orlando Pirates Ativo 122 / 107 40% 2 25.11.2026 -
Rúben Vinagre Legia Ativo 118 / 106 40% 1 25.11.2026 -
Michalis Kosidis Zaglebie Ativo 115 / 123 40% 2 22.11.2026 -
Matej Trusa DAC Dunajska Streda Ativo 118 / 109 40% 1 22.11.2026 -
Armstrong Oko-Flex Levski Ativo 125 / 115 40% 3 21.11.2026 -
Troy Parrott Betis Ativo 141 / 141 40% 3 18.11.2026 -
Mojmír Chytil Hajduk Split Ativo 129 / 123 40% 2 16.11.2026 -
Sead Hakšabanović Malmo FF Ativo 118 / 127 40% 2 13.11.2026 -
Gedson Fernandes Spartak Moscow Ativo 130 / 133 40% 1 13.11.2026 -
Mayckel Lahdo Malmo FF Ativo 122 / 128 40% 1 13.11.2026 -
Oleh Ocheretko Shakhtar Ativo 123 / 122 40% 1 10.11.2026 -
Martín Ojeda Orlando City Ativo 143 / 115 40% 1 06.11.2026 -
Iván Angulo Orlando City Ativo 121 / 142 40% 1 03.11.2026 -
Pablo Solari Spartak Moscow Ativo 133 / 127 40% 1 03.11.2026 -
Tomás Chancalay Minnesota United FC Ativo 133 / 122 40% 2 31.10.2026 -
Manfred Ugalde Spartak Moscow Ativo 127 / 138 40% 1 27.10.2026 -
Rafael Navarro St. Louis CITY SC Ativo 137 / 141 40% 1 27.10.2026 -
Liel Abada Charlotte Football Club Ativo 122 / 121 40% 4 25.10.2026 -
Artur Amroziński Spartak Kostroma Ativo 83 / 79 40% 1 24.10.2026 -
Dejan Joveljić Seattle Sounders Ativo 138 / 115 40% 3 23.10.2026 -
Jesus Ferreira Seattle Sounders Ativo 139 / 110 40% 2 22.10.2026 -
Antony Portland Timbers Ativo 128 / 134 40% 1 22.10.2026 -
Petar Stanić Ludogorets Ativo 142 / 146 40% 1 22.10.2026 -
Bénie Traoré New York City Ativo 124 / 110 40% 4 20.10.2026 -
Andile Manyama Ajax Cape Town Ativo 99 / 102 40% 1 12.10.2026 -
Mykola Kukharevych Slovan Bratislava Ativo 121 / 130 40% 1 12.10.2026 -
Tamar Svetlin Korona Ativo 120 / 113 72% 2 09.10.2026 Fortemente a favor
Patrik Wålemark Lech Ativo 125 / 131 40% 1 09.10.2026 -
Leonardo Campana New England Revolution Ativo 134 / 135 40% 1 05.10.2026 -
Iker Córdoba Valencia Ativo 107 / 107 40% 1 09.09.2026 -
Roger Hinojo Espanyol Ativo 116 / 106 40% 1 07.09.2026 -
Cemran Dansin Orlando Pirates Ativo 96 / 103 40% 1 01.09.2026 -
Sebastián Flores Rayo Vallecano Ativo 97 / 113 40% 1 01.09.2026 -
Law McCabe Middlesbrough Ativo 111 / 127 40% 1 24.08.2026 -
Miguel Sousa Braga Ativo 72 / 94 40% 1 24.08.2026 -
Romain Del Castillo Osasuna Ativo 135 / 133 40% 1 02.08.2026 -
Jonatan Torres Cerro Porteno Ativo 127 / 139 40% 1 02.08.2026 -